sensor_id;sensor_type;location;lat;lon;timestamp;pressure;altitude;pressure_sealevel;temperature;humidity
70815;BME280;58428;49.478;10.986;2023-05-20T00:00:10;98614.88;;;14.87;100.00
70815;BME280;58428;49.478;10.986;2023-05-20T00:02:38;98610.66;;;14.90;100.00
70815;BME280;58428;49.478;10.986;2023-05-20T00:05:04;98609.25;;;14.96;100.00
70815;BME280;58428;49.478;10.986;2023-05-20T00:07:30;98620.09;;;14.92;100.00
70815;BME280;58428;49.478;10.986;2023-05-20T00:09:57;98604.88;;;14.91;100.00
70815;BME280;58428;49.478;10.986;2023-05-20T00:12:24;98610.22;;;14.88;100.00
70815;BME280;58428;49.478;10.986;2023-05-20T00:14:50;98611.09;;;14.92;100.00
70815;BME280;58428;49.478;10.986;2023-05-20T00:17:16;98599.50;;;14.95;100.00
70815;BME280;58428;49.478;10.986;2023-05-20T00:19:41;98600.19;;;14.92;100.00
70815;BME280;58428;49.478;10.986;2023-05-20T00:22:07;98594.94;;;14.99;100.00
70815;BME280;58428;49.478;10.986;2023-05-20T00:24:32;98598.47;;;14.99;100.00
70815;BME280;58428;49.478;10.986;2023-05-20T00:26:58;98596.97;;;15.02;100.00
70815;BME280;58428;49.478;10.986;2023-05-20T00:29:24;98596.28;;;15.05;100.00
70815;BME280;58428;49.478;10.986;2023-05-20T00:31:50;98588.88;;;15.05;100.00
70815;BME280;58428;49.478;10.986;2023-05-20T00:34:15;98594.09;;;15.10;100.00
70815;BME280;58428;49.478;10.986;2023-05-20T00:36:41;98589.41;;;15.10;100.00
70815;BME280;58428;49.478;10.986;2023-05-20T00:39:07;98592.38;;;15.06;100.00
70815;BME280;58428;49.478;10.986;2023-05-20T00:41:33;98595.94;;;15.06;100.00
70815;BME280;58428;49.478;10.986;2023-05-20T00:43:59;98591.94;;;15.04;100.00
70815;BME280;58428;49.478;10.986;2023-05-20T00:46:25;98601.28;;;15.03;100.00
70815;BME280;58428;49.478;10.986;2023-05-20T00:48:53;98598.56;;;15.03;100.00
70815;BME280;58428;49.478;10.986;2023-05-20T00:51:19;98599.69;;;15.02;100.00
70815;BME280;58428;49.478;10.986;2023-05-20T00:53:45;98594.34;;;15.05;100.00
70815;BME280;58428;49.478;10.986;2023-05-20T00:56:12;98593.53;;;15.05;100.00
70815;BME280;58428;49.478;10.986;2023-05-20T00:58:39;98588.88;;;15.05;100.00
70815;BME280;58428;49.478;10.986;2023-05-20T01:01:05;98593.88;;;15.03;100.00
70815;BME280;58428;49.478;10.986;2023-05-20T01:03:30;98590.09;;;15.07;100.00
70815;BME280;58428;49.478;10.986;2023-05-20T01:05:56;98590.91;;;15.08;100.00
70815;BME280;58428;49.478;10.986;2023-05-20T01:08:22;98591.72;;;15.08;100.00
70815;BME280;58428;49.478;10.986;2023-05-20T01:11:05;98588.97;;;15.08;100.00
70815;BME280;58428;49.478;10.986;2023-05-20T01:13:36;98590.81;;;15.05;100.00
70815;BME280;58428;49.478;10.986;2023-05-20T01:16:05;98589.94;;;15.01;100.00
70815;BME280;58428;49.478;10.986;2023-05-20T01:18:34;98588.78;;;15.02;100.00
70815;BME280;58428;49.478;10.986;2023-05-20T01:21:02;98579.13;;;15.04;100.00
70815;BME280;58428;49.478;10.986;2023-05-20T01:23:33;98576.84;;;15.06;100.00
70815;BME280;58428;49.478;10.986;2023-05-20T01:26:03;98580.59;;;15.02;100.00
70815;BME280;58428;49.478;10.986;2023-05-20T01:28:31;98574.47;;;15.05;100.00
70815;BME280;58428;49.478;10.986;2023-05-20T01:31:00;98568.31;;;15.07;100.00
70815;BME280;58428;49.478;10.986;2023-05-20T01:33:27;98570.81;;;15.12;100.00
70815;BME280;58428;49.478;10.986;2023-05-20T01:35:54;98574.75;;;15.15;100.00
70815;BME280;58428;49.478;10.986;2023-05-20T01:38:22;98576.13;;;15.09;100.00
70815;BME280;58428;49.478;10.986;2023-05-20T01:40:48;98568.69;;;15.06;100.00
70815;BME280;58428;49.478;10.986;2023-05-20T01:43:14;98577.97;;;15.05;100.00
70815;BME280;58428;49.478;10.986;2023-05-20T01:45:40;98575.59;;;15.04;100.00
70815;BME280;58428;49.478;10.986;2023-05-20T01:48:16;98573.41;;;15.09;100.00
70815;BME280;58428;49.478;10.986;2023-05-20T01:50:42;98573.06;;;15.10;100.00
70815;BME280;58428;49.478;10.986;2023-05-20T01:53:08;98565.03;;;15.14;100.00
70815;BME280;58428;49.478;10.986;2023-05-20T01:55:34;98566.84;;;15.10;100.00
70815;BME280;58428;49.478;10.986;2023-05-20T01:58:01;98558.66;;;15.10;100.00
70815;BME280;58428;49.478;10.986;2023-05-20T02:00:27;98558.66;;;15.10;100.00
70815;BME280;58428;49.478;10.986;2023-05-20T02:02:52;98555.50;;;15.08;100.00
70815;BME280;58428;49.478;10.986;2023-05-20T02:05:18;98559.34;;;15.07;100.00
70815;BME280;58428;49.478;10.986;2023-05-20T02:07:43;98558.22;;;15.08;100.00
70815;BME280;58428;49.478;10.986;2023-05-20T02:10:09;98557.06;;;15.09;100.00
70815;BME280;58428;49.478;10.986;2023-05-20T02:12:35;98548.19;;;15.12;100.00
70815;BME280;58428;49.478;10.986;2023-05-20T02:15:00;98549.00;;;15.12;100.00
70815;BME280;58428;49.478;10.986;2023-05-20T02:17:25;98540.84;;;15.12;100.00
70815;BME280;58428;49.478;10.986;2023-05-20T02:19:51;98540.72;;;15.09;100.00
70815;BME280;58428;49.478;10.986;2023-05-20T02:22:17;98543.28;;;15.02;100.00
70815;BME280;58428;49.478;10.986;2023-05-20T02:24:43;98539.22;;;14.96;100.00
70815;BME280;58428;49.478;10.986;2023-05-20T02:27:09;98545.72;;;14.92;100.00
70815;BME280;58428;49.478;10.986;2023-05-20T02:29:37;98551.00;;;14.85;100.00
70815;BME280;58428;49.478;10.986;2023-05-20T02:32:04;98541.06;;;14.77;100.00
70815;BME280;58428;49.478;10.986;2023-05-20T02:34:31;98540.31;;;14.65;100.00
70815;BME280;58428;49.478;10.986;2023-05-20T02:36:57;98544.31;;;14.55;100.00
70815;BME280;58428;49.478;10.986;2023-05-20T02:39:23;98549.00;;;14.55;100.00
70815;BME280;58428;49.478;10.986;2023-05-20T02:41:49;98551.38;;;14.56;100.00
70815;BME280;58428;49.478;10.986;2023-05-20T02:44:14;98552.50;;;14.55;100.00
70815;BME280;58428;49.478;10.986;2023-05-20T02:46:40;98545.81;;;14.53;100.00
70815;BME280;58428;49.478;10.986;2023-05-20T02:49:06;98554.59;;;14.46;100.00
70815;BME280;58428;49.478;10.986;2023-05-20T02:51:31;98551.44;;;14.44;100.00
70815;BME280;58428;49.478;10.986;2023-05-20T02:53:57;98555.19;;;14.40;100.00
70815;BME280;58428;49.478;10.986;2023-05-20T02:56:22;98563.81;;;14.42;100.00
70815;BME280;58428;49.478;10.986;2023-05-20T02:58:48;98565.72;;;14.41;100.00
70815;BME280;58428;49.478;10.986;2023-05-20T03:01:15;98556.66;;;14.37;100.00
70815;BME280;58428;49.478;10.986;2023-05-20T03:03:42;98563.72;;;14.38;100.00
70815;BME280;58428;49.478;10.986;2023-05-20T03:06:08;98558.94;;;14.35;100.00
70815;BME280;58428;49.478;10.986;2023-05-20T03:08:33;98559.88;;;14.28;100.00
70815;BME280;58428;49.478;10.986;2023-05-20T03:10:59;98558.06;;;14.32;100.00
70815;BME280;58428;49.478;10.986;2023-05-20T03:13:24;98559.09;;;14.27;100.00
70815;BME280;58428;49.478;10.986;2023-05-20T03:15:49;98565.09;;;14.33;100.00
70815;BME280;58428;49.478;10.986;2023-05-20T03:18:15;98563.94;;;14.34;100.00
70815;BME280;58428;49.478;10.986;2023-05-20T03:20:41;98566.66;;;14.34;100.00
70815;BME280;58428;49.478;10.986;2023-05-20T03:23:07;98564.66;;;14.31;100.00
70815;BME280;58428;49.478;10.986;2023-05-20T03:25:33;98568.94;;;14.32;100.00
70815;BME280;58428;49.478;10.986;2023-05-20T03:28:01;98570.44;;;14.29;100.00
70815;BME280;58428;49.478;10.986;2023-05-20T03:30:26;98568.38;;;14.26;100.00
70815;BME280;58428;49.478;10.986;2023-05-20T03:32:54;98569.19;;;14.27;100.00
70815;BME280;58428;49.478;10.986;2023-05-20T03:35:20;98568.38;;;14.26;100.00
70815;BME280;58428;49.478;10.986;2023-05-20T03:37:46;98575.88;;;14.29;100.00
70815;BME280;58428;49.478;10.986;2023-05-20T03:40:11;98574.44;;;14.20;100.00
70815;BME280;58428;49.478;10.986;2023-05-20T03:42:37;98571.69;;;14.20;100.00
70815;BME280;58428;49.478;10.986;2023-05-20T03:45:03;98568.75;;;14.25;100.00
70815;BME280;58428;49.478;10.986;2023-05-20T03:47:28;98572.25;;;14.25;100.00
70815;BME280;58428;49.478;10.986;2023-05-20T03:49:54;98565.59;;;14.23;100.00
70815;BME280;58428;49.478;10.986;2023-05-20T03:52:19;98568.75;;;14.25;100.00
70815;BME280;58428;49.478;10.986;2023-05-20T03:54:45;98568.75;;;14.25;100.00
70815;BME280;58428;49.478;10.986;2023-05-20T03:57:10;98565.00;;;14.29;100.00
70815;BME280;58428;49.478;10.986;2023-05-20T03:59:36;98577.25;;;14.23;100.00
70815;BME280;58428;49.478;10.986;2023-05-20T04:02:02;98575.75;;;14.26;100.00
70815;BME280;58428;49.478;10.986;2023-05-20T04:04:28;98571.22;;;14.30;100.00
70815;BME280;58428;49.478;10.986;2023-05-20T04:06:53;98571.44;;;14.36;100.00
70815;BME280;58428;49.478;10.986;2023-05-20T04:09:19;98574.69;;;14.42;100.00
70815;BME280;58428;49.478;10.986;2023-05-20T04:11:44;98577.06;;;14.43;100.00
70815;BME280;58428;49.478;10.986;2023-05-20T04:14:10;98572.44;;;14.44;100.00
70815;BME280;58428;49.478;10.986;2023-05-20T04:16:35;98569.72;;;14.44;100.00
70815;BME280;58428;49.478;10.986;2023-05-20T04:19:02;98569.03;;;14.35;100.00
70815;BME280;58428;49.478;10.986;2023-05-20T04:21:27;98569.03;;;14.35;100.00
70815;BME280;58428;49.478;10.986;2023-05-20T04:23:53;98557.72;;;14.33;100.00
70815;BME280;58428;49.478;10.986;2023-05-20T04:26:18;98562.44;;;14.36;100.00
70815;BME280;58428;49.478;10.986;2023-05-20T04:28:45;98569.94;;;14.39;100.00
70815;BME280;58428;49.478;10.986;2023-05-20T04:31:13;98564.72;;;14.34;100.00
70815;BME280;58428;49.478;10.986;2023-05-20T04:33:38;98571.44;;;14.36;100.00
70815;BME280;58428;49.478;10.986;2023-05-20T04:36:06;98556.09;;;14.44;100.00
70815;BME280;58428;49.478;10.986;2023-05-20T04:38:31;98566.88;;;14.40;100.00
70815;BME280;58428;49.478;10.986;2023-05-20T04:40:57;98565.72;;;14.41;100.00
70815;BME280;58428;49.478;10.986;2023-05-20T04:43:26;98565.81;;;14.45;100.00
70815;BME280;58428;49.478;10.986;2023-05-20T04:45:54;98563.38;;;14.55;100.00
70815;BME280;58428;49.478;10.986;2023-05-20T04:48:20;98562.44;;;14.63;100.00
70815;BME280;58428;49.478;10.986;2023-05-20T04:50:48;98568.19;;;14.73;100.00
70815;BME280;58428;49.478;10.986;2023-05-20T04:53:23;98561.78;;;14.81;100.00
70815;BME280;58428;49.478;10.986;2023-05-20T04:55:48;98561.81;;;14.97;100.00
70815;BME280;58428;49.478;10.986;2023-05-20T04:58:18;98566.03;;;15.09;100.00
70815;BME280;58428;49.478;10.986;2023-05-20T05:00:43;98561.66;;;15.20;100.00
70815;BME280;58428;49.478;10.986;2023-05-20T05:03:09;98563.19;;;15.33;100.00
70815;BME280;58428;49.478;10.986;2023-05-20T05:05:37;98563.53;;;15.32;100.00
70815;BME280;58428;49.478;10.986;2023-05-20T05:08:04;98560.50;;;15.37;100.00
70815;BME280;58428;49.478;10.986;2023-05-20T05:10:30;98556.13;;;15.47;100.00
70815;BME280;58428;49.478;10.986;2023-05-20T05:12:55;98552.50;;;15.59;100.00
70815;BME280;58428;49.478;10.986;2023-05-20T05:15:21;98550.81;;;15.70;100.00
70815;BME280;58428;49.478;10.986;2023-05-20T05:17:46;98544.19;;;15.71;100.00
70815;BME280;58428;49.478;10.986;2023-05-20T05:20:12;98545.28;;;15.85;100.00
70815;BME280;58428;49.478;10.986;2023-05-20T05:22:37;98543.53;;;15.92;100.00
70815;BME280;58428;49.478;10.986;2023-05-20T05:25:05;98542.38;;;16.12;100.00
70815;BME280;58428;49.478;10.986;2023-05-20T05:27:32;98537.63;;;16.24;100.00
70815;BME280;58428;49.478;10.986;2023-05-20T05:29:57;98532.28;;;16.31;100.00
70815;BME280;58428;49.478;10.986;2023-05-20T05:32:23;98536.81;;;16.43;100.00
70815;BME280;58428;49.478;10.986;2023-05-20T05:34:48;98529.47;;;16.47;100.00
70815;BME280;58428;49.478;10.986;2023-05-20T05:37:13;98529.44;;;16.43;100.00
70815;BME280;58428;49.478;10.986;2023-05-20T05:39:39;98528.69;;;16.46;100.00
70815;BME280;58428;49.478;10.986;2023-05-20T05:42:04;98523.44;;;16.57;100.00
70815;BME280;58428;49.478;10.986;2023-05-20T05:44:30;98520.56;;;16.68;100.00
70815;BME280;58428;49.478;10.986;2023-05-20T05:46:55;98522.28;;;16.76;100.00
70815;BME280;58428;49.478;10.986;2023-05-20T05:49:22;98522.50;;;16.68;100.00
70815;BME280;58428;49.478;10.986;2023-05-20T05:51:49;98523.34;;;16.72;100.00
70815;BME280;58428;49.478;10.986;2023-05-20T05:54:15;98522.97;;;16.73;100.00
70815;BME280;58428;49.478;10.986;2023-05-20T05:56:40;98525.28;;;16.71;100.00
70815;BME280;58428;49.478;10.986;2023-05-20T05:59:06;98521.28;;;16.65;100.00
70815;BME280;58428;49.478;10.986;2023-05-20T06:01:32;98518.31;;;16.74;100.00
70815;BME280;58428;49.478;10.986;2023-05-20T06:03:59;98534.72;;;16.96;100.00
70815;BME280;58428;49.478;10.986;2023-05-20T06:06:25;98524.00;;;17.29;100.00
70815;BME280;58428;49.478;10.986;2023-05-20T06:08:50;98517.44;;;17.59;100.00
70815;BME280;58428;49.478;10.986;2023-05-20T06:11:16;98512.28;;;17.79;100.00
70815;BME280;58428;49.478;10.986;2023-05-20T06:13:41;98505.78;;;17.91;100.00
70815;BME280;58428;49.478;10.986;2023-05-20T06:16:07;98499.50;;;17.87;100.00
70815;BME280;58428;49.478;10.986;2023-05-20T06:18:32;98489.13;;;17.73;100.00
70815;BME280;58428;49.478;10.986;2023-05-20T06:21:01;98498.34;;;17.62;100.00
70815;BME280;58428;49.478;10.986;2023-05-20T06:23:27;98494.53;;;17.70;100.00
70815;BME280;58428;49.478;10.986;2023-05-20T06:25:56;98496.16;;;17.74;100.00
70815;BME280;58428;49.478;10.986;2023-05-20T06:28:22;98482.94;;;17.80;100.00
70815;BME280;58428;49.478;10.986;2023-05-20T06:30:48;98487.66;;;17.79;100.00
70815;BME280;58428;49.478;10.986;2023-05-20T06:33:13;98492.34;;;17.79;100.00
70815;BME280;58428;49.478;10.986;2023-05-20T06:35:39;98482.47;;;17.71;100.00
70815;BME280;58428;49.478;10.986;2023-05-20T06:38:04;98492.34;;;17.79;100.00
70815;BME280;58428;49.478;10.986;2023-05-20T06:40:30;98490.88;;;17.88;100.00
70815;BME280;58428;49.478;10.986;2023-05-20T06:42:55;98483.91;;;17.91;100.00
70815;BME280;58428;49.478;10.986;2023-05-20T06:45:20;98480.03;;;17.95;100.00
70815;BME280;58428;49.478;10.986;2023-05-20T06:47:46;98479.19;;;17.91;100.00
70815;BME280;58428;49.478;10.986;2023-05-20T06:50:13;98488.34;;;18.02;100.00
70815;BME280;58428;49.478;10.986;2023-05-20T06:52:38;98475.41;;;17.99;100.00
70815;BME280;58428;49.478;10.986;2023-05-20T06:55:05;98479.31;;;17.98;100.00
70815;BME280;58428;49.478;10.986;2023-05-20T06:57:32;98479.75;;;18.04;100.00
70815;BME280;58428;49.478;10.986;2023-05-20T06:59:57;98474.06;;;18.15;100.00
70815;BME280;58428;49.478;10.986;2023-05-20T07:02:23;98467.13;;;18.25;100.00
70815;BME280;58428;49.478;10.986;2023-05-20T07:04:49;98470.38;;;18.34;100.00
70815;BME280;58428;49.478;10.986;2023-05-20T07:07:14;98461.06;;;18.42;100.00
70815;BME280;58428;49.478;10.986;2023-05-20T07:09:41;98456.06;;;18.47;100.00
70815;BME280;58428;49.478;10.986;2023-05-20T07:12:07;98461.53;;;18.47;100.00
70815;BME280;58428;49.478;10.986;2023-05-20T07:14:32;98464.75;;;18.56;100.00
70815;BME280;58428;49.478;10.986;2023-05-20T07:16:58;98461.31;;;18.66;100.00
70815;BME280;58428;49.478;10.986;2023-05-20T07:19:27;98457.06;;;18.68;100.00
70815;BME280;58428;49.478;10.986;2023-05-20T07:21:54;98464.13;;;18.73;100.00
70815;BME280;58428;49.478;10.986;2023-05-20T07:24:19;98461.06;;;18.78;100.00
70815;BME280;58428;49.478;10.986;2023-05-20T07:26:45;98461.06;;;18.81;100.00
70815;BME280;58428;49.478;10.986;2023-05-20T07:29:10;98448.47;;;18.73;100.00
70815;BME280;58428;49.478;10.986;2023-05-20T07:31:37;98449.38;;;18.84;100.00
70815;BME280;58428;49.478;10.986;2023-05-20T07:34:03;98448.22;;;18.88;100.00
70815;BME280;58428;49.478;10.986;2023-05-20T07:36:29;98444.34;;;18.89;100.00
70815;BME280;58428;49.478;10.986;2023-05-20T07:38:54;98443.28;;;19.04;100.00
70815;BME280;58428;49.478;10.986;2023-05-20T07:41:20;98444.97;;;19.16;100.00
70815;BME280;58428;49.478;10.986;2023-05-20T07:43:46;98448.91;;;19.21;100.00
70815;BME280;58428;49.478;10.986;2023-05-20T07:46:12;98450.22;;;19.38;100.00
70815;BME280;58428;49.478;10.986;2023-05-20T07:48:38;98446.41;;;19.49;100.00
70815;BME280;58428;49.478;10.986;2023-05-20T07:51:04;98442.91;;;19.62;100.00
70815;BME280;58428;49.478;10.986;2023-05-20T07:53:29;98438.63;;;19.61;100.00
70815;BME280;58428;49.478;10.986;2023-05-20T07:55:56;98438.97;;;19.56;100.00
70815;BME280;58428;49.478;10.986;2023-05-20T07:58:21;98440.97;;;19.59;100.00
70815;BME280;58428;49.478;10.986;2023-05-20T08:00:47;98435.88;;;19.61;100.00
70815;BME280;58428;49.478;10.986;2023-05-20T08:03:13;98435.50;;;19.70;100.00
70815;BME280;58428;49.478;10.986;2023-05-20T08:05:40;98433.22;;;19.79;100.00
70815;BME280;58428;49.478;10.986;2023-05-20T08:08:05;98434.84;;;19.87;100.00
70815;BME280;58428;49.478;10.986;2023-05-20T08:10:31;98433.69;;;19.91;100.00
70815;BME280;58428;49.478;10.986;2023-05-20T08:12:56;98430.84;;;19.77;100.00
70815;BME280;58428;49.478;10.986;2023-05-20T08:15:22;98419.84;;;19.67;100.00
70815;BME280;58428;49.478;10.986;2023-05-20T08:17:47;98415.06;;;19.60;100.00
70815;BME280;58428;49.478;10.986;2023-05-20T08:20:13;98411.16;;;19.61;100.00
70815;BME280;58428;49.478;10.986;2023-05-20T08:22:38;98414.31;;;19.63;100.00
70815;BME280;58428;49.478;10.986;2023-05-20T08:25:07;98406.97;;;19.81;100.00
70815;BME280;58428;49.478;10.986;2023-05-20T08:27:32;98396.50;;;20.04;100.00
70815;BME280;58428;49.478;10.986;2023-05-20T08:29:58;98399.66;;;20.16;100.00
70815;BME280;58428;49.478;10.986;2023-05-20T08:32:23;98395.38;;;20.26;100.00
70815;BME280;58428;49.478;10.986;2023-05-20T08:34:49;98400.59;;;20.62;100.00
70815;BME280;58428;49.478;10.986;2023-05-20T08:37:15;98402.97;;;20.87;100.00
70815;BME280;58428;49.478;10.986;2023-05-20T08:39:40;98391.94;;;20.73;100.00
70815;BME280;58428;49.478;10.986;2023-05-20T08:42:06;98394.72;;;20.87;100.00
70815;BME280;58428;49.478;10.986;2023-05-20T08:44:33;98395.06;;;21.13;100.00
70815;BME280;58428;49.478;10.986;2023-05-20T08:47:01;98397.03;;;21.47;100.00
70815;BME280;58428;49.478;10.986;2023-05-20T08:49:28;98391.88;;;21.60;100.00
70815;BME280;58428;49.478;10.986;2023-05-20T08:51:54;98388.31;;;21.70;100.00
70815;BME280;58428;49.478;10.986;2023-05-20T08:54:20;98385.91;;;21.82;100.00
70815;BME280;58428;49.478;10.986;2023-05-20T08:56:48;98384.81;;;21.55;100.00
70815;BME280;58428;49.478;10.986;2023-05-20T08:59:13;98387.59;;;21.45;100.00
70815;BME280;58428;49.478;10.986;2023-05-20T09:01:43;98380.50;;;21.41;100.00
70815;BME280;58428;49.478;10.986;2023-05-20T09:04:08;98394.69;;;21.39;100.00
70815;BME280;58428;49.478;10.986;2023-05-20T09:06:44;98389.97;;;21.15;100.00
70815;BME280;58428;49.478;10.986;2023-05-20T09:09:13;98388.00;;;21.30;100.00
70815;BME280;58428;49.478;10.986;2023-05-20T09:11:39;98390.31;;;21.35;100.00
70815;BME280;58428;49.478;10.986;2023-05-20T09:14:06;98383.66;;;21.36;100.00
70815;BME280;58428;49.478;10.986;2023-05-20T09:16:31;98381.31;;;21.41;100.00
70815;BME280;58428;49.478;10.986;2023-05-20T09:19:01;98393.84;;;21.56;100.00
70815;BME280;58428;49.478;10.986;2023-05-20T09:21:27;98388.69;;;21.78;100.00
70815;BME280;58428;49.478;10.986;2023-05-20T09:23:55;98392.91;;;22.04;100.00
70815;BME280;58428;49.478;10.986;2023-05-20T09:26:27;98389.69;;;22.22;100.00
70815;BME280;58428;49.478;10.986;2023-05-20T09:28:58;98390.41;;;22.33;100.00
70815;BME280;58428;49.478;10.986;2023-05-20T09:31:30;98391.25;;;22.23;100.00
70815;BME280;58428;49.478;10.986;2023-05-20T09:33:59;98387.38;;;22.11;100.00
70815;BME280;58428;49.478;10.986;2023-05-20T09:36:28;98374.75;;;22.13;100.00
70815;BME280;58428;49.478;10.986;2023-05-20T09:39:00;98382.13;;;22.33;100.00
70815;BME280;58428;49.478;10.986;2023-05-20T09:41:36;98362.72;;;22.51;100.00
70815;BME280;58428;49.478;10.986;2023-05-20T09:44:04;98376.97;;;22.46;100.00
70815;BME280;58428;49.478;10.986;2023-05-20T09:46:33;98380.06;;;22.51;100.00
70815;BME280;58428;49.478;10.986;2023-05-20T09:48:59;98374.84;;;22.67;100.00
70815;BME280;58428;49.478;10.986;2023-05-20T09:51:26;98370.66;;;22.95;100.00
70815;BME280;58428;49.478;10.986;2023-05-20T09:53:52;98370.53;;;23.13;100.00
70815;BME280;58428;49.478;10.986;2023-05-20T09:56:19;98362.63;;;23.15;100.00
70815;BME280;58428;49.478;10.986;2023-05-20T09:58:48;98355.22;;;23.45;100.00
70815;BME280;58428;49.478;10.986;2023-05-20T10:01:14;98358.94;;;23.68;100.00
70815;BME280;58428;49.478;10.986;2023-05-20T10:03:40;98363.22;;;23.72;100.00
70815;BME280;58428;49.478;10.986;2023-05-20T10:20:27;98332.66;;;23.86;100.00
70815;BME280;58428;49.478;10.986;2023-05-20T10:22:56;98334.66;;;23.82;100.00
70815;BME280;58428;49.478;10.986;2023-05-20T10:25:24;98340.03;;;23.63;100.00
70815;BME280;58428;49.478;10.986;2023-05-20T10:28:07;98339.59;;;23.31;100.00
70815;BME280;58428;49.478;10.986;2023-05-20T10:30:33;98330.78;;;23.43;100.00
70815;BME280;58428;49.478;10.986;2023-05-20T10:33:03;98327.19;;;23.83;100.00
70815;BME280;58428;49.478;10.986;2023-05-20T10:35:29;98329.03;;;23.93;100.00
70815;BME280;58428;49.478;10.986;2023-05-20T10:38:07;98326.16;;;24.00;100.00
70815;BME280;58428;49.478;10.986;2023-05-20T10:40:33;98321.88;;;23.95;100.00
70815;BME280;58428;49.478;10.986;2023-05-20T10:43:08;98320.88;;;24.12;100.00
70815;BME280;58428;49.478;10.986;2023-05-20T10:45:35;98321.53;;;24.19;100.00
70815;BME280;58428;49.478;10.986;2023-05-20T10:48:28;98312.72;;;24.31;100.00
70815;BME280;58428;49.478;10.986;2023-05-20T10:50:56;98307.78;;;24.42;100.00
70815;BME280;58428;49.478;10.986;2023-05-20T10:53:23;98310.31;;;24.33;100.00
70815;BME280;58428;49.478;10.986;2023-05-20T10:55:51;98319.72;;;24.39;100.00
70815;BME280;58428;49.478;10.986;2023-05-20T10:58:20;98305.31;;;24.21;99.74
70815;BME280;58428;49.478;10.986;2023-05-20T11:00:47;98301.50;;;24.12;97.93
70815;BME280;58428;49.478;10.986;2023-05-20T11:03:15;98314.38;;;24.25;100.00
70815;BME280;58428;49.478;10.986;2023-05-20T11:05:40;98304.28;;;24.38;99.67
70815;BME280;58428;49.478;10.986;2023-05-20T11:08:07;98300.94;;;24.50;96.28
70815;BME280;58428;49.478;10.986;2023-05-20T11:10:34;98295.66;;;24.59;98.41
70815;BME280;58428;49.478;10.986;2023-05-20T11:13:01;98297.72;;;24.55;95.25
70815;BME280;58428;49.478;10.986;2023-05-20T11:15:27;98281.84;;;24.59;97.55
70815;BME280;58428;49.478;10.986;2023-05-20T11:17:56;98299.16;;;24.63;96.95
70815;BME280;58428;49.478;10.986;2023-05-20T11:20:41;98292.56;;;24.31;94.72
70815;BME280;58428;49.478;10.986;2023-05-20T11:23:11;98284.88;;;24.41;96.58
70815;BME280;58428;49.478;10.986;2023-05-20T11:25:37;98291.81;;;24.53;96.95
70815;BME280;58428;49.478;10.986;2023-05-20T11:28:03;98291.75;;;24.79;96.98
70815;BME280;58428;49.478;10.986;2023-05-20T11:30:29;98294.22;;;24.74;92.18
70815;BME280;58428;49.478;10.986;2023-05-20T11:32:59;98276.84;;;24.50;93.97
70815;BME280;58428;49.478;10.986;2023-05-20T11:35:26;98287.16;;;24.46;95.81
70815;BME280;58428;49.478;10.986;2023-05-20T11:38:04;98273.56;;;24.33;94.09
70815;BME280;58428;49.478;10.986;2023-05-20T11:40:31;98271.84;;;24.16;96.29
70815;BME280;58428;49.478;10.986;2023-05-20T11:43:02;98277.84;;;24.07;96.96
70815;BME280;58428;49.478;10.986;2023-05-20T11:45:41;98265.25;;;24.06;98.56
70815;BME280;58428;49.478;10.986;2023-05-20T11:48:07;98262.56;;;24.29;98.31
70815;BME280;58428;49.478;10.986;2023-05-20T11:50:43;98254.50;;;24.38;97.18
70815;BME280;58428;49.478;10.986;2023-05-20T11:53:17;98258.59;;;24.30;98.07
70815;BME280;58428;49.478;10.986;2023-05-20T11:55:44;98265.41;;;24.48;99.42
70815;BME280;58428;49.478;10.986;2023-05-20T11:58:11;98257.72;;;24.59;99.30
70815;BME280;58428;49.478;10.986;2023-05-20T12:00:39;98255.56;;;24.93;99.36
70815;BME280;58428;49.478;10.986;2023-05-20T12:03:05;98260.94;;;25.22;98.93
70815;BME280;58428;49.478;10.986;2023-05-20T12:05:30;98254.47;;;25.48;94.77
70815;BME280;58428;49.478;10.986;2023-05-20T12:07:55;98261.94;;;25.51;93.34
70815;BME280;58428;49.478;10.986;2023-05-20T12:10:21;98267.91;;;25.30;93.54
70815;BME280;58428;49.478;10.986;2023-05-20T12:12:47;98274.00;;;25.41;93.88
70815;BME280;58428;49.478;10.986;2023-05-20T12:15:15;98272.53;;;25.37;91.17
70815;BME280;58428;49.478;10.986;2023-05-20T12:17:50;98261.50;;;25.33;94.81
70815;BME280;58428;49.478;10.986;2023-05-20T12:20:19;98263.44;;;25.36;91.46
70815;BME280;58428;49.478;10.986;2023-05-20T12:22:45;98261.84;;;25.35;94.36
70815;BME280;58428;49.478;10.986;2023-05-20T12:25:12;98253.91;;;25.37;91.22
70815;BME280;58428;49.478;10.986;2023-05-20T12:27:39;98274.44;;;25.20;92.16
70815;BME280;58428;49.478;10.986;2023-05-20T12:30:07;98263.00;;;25.18;93.78
70815;BME280;58428;49.478;10.986;2023-05-20T12:32:36;98259.78;;;25.39;94.60
70815;BME280;58428;49.478;10.986;2023-05-20T12:35:02;98257.06;;;25.58;94.41
70815;BME280;58428;49.478;10.986;2023-05-20T12:37:28;98259.66;;;25.85;93.30
70815;BME280;58428;49.478;10.986;2023-05-20T12:39:53;98255.53;;;25.92;91.49
70815;BME280;58428;49.478;10.986;2023-05-20T12:42:19;98266.69;;;25.89;90.45
70815;BME280;58428;49.478;10.986;2023-05-20T12:44:44;98261.56;;;25.88;90.85
70815;BME280;58428;49.478;10.986;2023-05-20T12:47:10;98250.09;;;25.70;92.54
70815;BME280;58428;49.478;10.986;2023-05-20T12:49:35;98251.22;;;25.72;94.65
70815;BME280;58428;49.478;10.986;2023-05-20T12:52:01;98246.47;;;25.73;94.50